sensor_id;sensor_type;location;lat;lon;timestamp;P1;durP1;ratioP1;P2;durP2;ratioP2
58306;SDS011;44116;50.884;4.768;2024-02-14T00:01:09;4.6;;;2.7;;
58306;SDS011;44116;50.884;4.768;2024-02-14T00:03:08;5.9;;;3.0;;
58306;SDS011;44116;50.884;4.768;2024-02-14T00:05:08;5.5;;;2.9;;
58306;SDS011;44116;50.884;4.768;2024-02-14T00:07:08;6.3;;;3.3;;
58306;SDS011;44116;50.884;4.768;2024-02-14T00:09:07;3.8;;;2.7;;
58306;SDS011;44116;50.884;4.768;2024-02-14T00:11:07;5.9;;;2.9;;
58306;SDS011;44116;50.884;4.768;2024-02-14T00:13:07;5.7;;;2.8;;
58306;SDS011;44116;50.884;4.768;2024-02-14T00:15:07;6.0;;;3.0;;
58306;SDS011;44116;50.884;4.768;2024-02-14T00:17:06;7.0;;;3.2;;
58306;SDS011;44116;50.884;4.768;2024-02-14T00:19:06;6.7;;;2.6;;
58306;SDS011;44116;50.884;4.768;2024-02-14T00:21:06;5.4;;;3.0;;
58306;SDS011;44116;50.884;4.768;2024-02-14T00:23:07;4.9;;;2.6;;
58306;SDS011;44116;50.884;4.768;2024-02-14T00:25:05;6.1;;;2.8;;
58306;SDS011;44116;50.884;4.768;2024-02-14T00:29:04;4.2;;;2.6;;
58306;SDS011;44116;50.884;4.768;2024-02-14T00:31:06;4.1;;;2.9;;
58306;SDS011;44116;50.884;4.768;2024-02-14T00:33:04;4.9;;;2.8;;
58306;SDS011;44116;50.884;4.768;2024-02-14T00:35:04;6.2;;;3.0;;
58306;SDS011;44116;50.884;4.768;2024-02-14T00:37:03;5.9;;;3.3;;
58306;SDS011;44116;50.884;4.768;2024-02-14T00:41:02;6.8;;;2.9;;
58306;SDS011;44116;50.884;4.768;2024-02-14T00:45:02;5.5;;;2.8;;
58306;SDS011;44116;50.884;4.768;2024-02-14T00:47:01;5.3;;;2.7;;
58306;SDS011;44116;50.884;4.768;2024-02-14T00:49:01;5.2;;;2.8;;
58306;SDS011;44116;50.884;4.768;2024-02-14T00:51:00;6.6;;;2.9;;
58306;SDS011;44116;50.884;4.768;2024-02-14T00:53:00;4.2;;;2.7;;
58306;SDS011;44116;50.884;4.768;2024-02-14T00:55:00;6.5;;;3.1;;
58306;SDS011;44116;50.884;4.768;2024-02-14T00:56:59;5.8;;;2.8;;
58306;SDS011;44116;50.884;4.768;2024-02-14T00:58:59;5.2;;;2.9;;
58306;SDS011;44116;50.884;4.768;2024-02-14T01:00:59;4.6;;;2.7;;
58306;SDS011;44116;50.884;4.768;2024-02-14T01:02:58;5.6;;;3.1;;
58306;SDS011;44116;50.884;4.768;2024-02-14T01:04:58;7.1;;;3.0;;
58306;SDS011;44116;50.884;4.768;2024-02-14T01:06:58;6.6;;;3.2;;
58306;SDS011;44116;50.884;4.768;2024-02-14T01:08:57;6.8;;;3.1;;
58306;SDS011;44116;50.884;4.768;2024-02-14T01:10:57;6.9;;;3.3;;
58306;SDS011;44116;50.884;4.768;2024-02-14T01:12:57;5.6;;;2.9;;
58306;SDS011;44116;50.884;4.768;2024-02-14T01:14:57;6.4;;;3.2;;
58306;SDS011;44116;50.884;4.768;2024-02-14T01:16:56;5.0;;;2.8;;
58306;SDS011;44116;50.884;4.768;2024-02-14T01:18:56;6.3;;;3.3;;
58306;SDS011;44116;50.884;4.768;2024-02-14T01:20:55;6.3;;;3.4;;
58306;SDS011;44116;50.884;4.768;2024-02-14T01:22:55;5.8;;;3.0;;
58306;SDS011;44116;50.884;4.768;2024-02-14T01:24:55;5.7;;;2.9;;
58306;SDS011;44116;50.884;4.768;2024-02-14T01:28:54;5.3;;;2.8;;
58306;SDS011;44116;50.884;4.768;2024-02-14T01:30:54;5.8;;;3.2;;
58306;SDS011;44116;50.884;4.768;2024-02-14T01:32:53;5.9;;;3.4;;
58306;SDS011;44116;50.884;4.768;2024-02-14T01:36:53;9.5;;;4.0;;
58306;SDS011;44116;50.884;4.768;2024-02-14T01:38:52;6.4;;;3.7;;
58306;SDS011;44116;50.884;4.768;2024-02-14T01:40:52;7.1;;;3.5;;
58306;SDS011;44116;50.884;4.768;2024-02-14T01:42:52;6.0;;;3.3;;
58306;SDS011;44116;50.884;4.768;2024-02-14T01:44:52;6.1;;;3.8;;
58306;SDS011;44116;50.884;4.768;2024-02-14T01:46:51;8.2;;;3.6;;
58306;SDS011;44116;50.884;4.768;2024-02-14T01:48:51;7.5;;;3.7;;
58306;SDS011;44116;50.884;4.768;2024-02-14T01:50:51;7.0;;;3.5;;
58306;SDS011;44116;50.884;4.768;2024-02-14T01:52:50;7.0;;;3.7;;
58306;SDS011;44116;50.884;4.768;2024-02-14T01:54:51;5.6;;;3.4;;
58306;SDS011;44116;50.884;4.768;2024-02-14T01:58:50;8.6;;;3.5;;
58306;SDS011;44116;50.884;4.768;2024-02-14T02:02:51;5.4;;;3.2;;
58306;SDS011;44116;50.884;4.768;2024-02-14T02:04:48;7.9;;;3.8;;
58306;SDS011;44116;50.884;4.768;2024-02-14T02:06:48;6.7;;;3.2;;
58306;SDS011;44116;50.884;4.768;2024-02-14T02:08:48;7.3;;;3.7;;
58306;SDS011;44116;50.884;4.768;2024-02-14T02:10:47;6.0;;;3.5;;
58306;SDS011;44116;50.884;4.768;2024-02-14T02:12:47;7.2;;;4.1;;
58306;SDS011;44116;50.884;4.768;2024-02-14T02:14:47;6.6;;;3.6;;
58306;SDS011;44116;50.884;4.768;2024-02-14T02:18:47;8.2;;;3.5;;
58306;SDS011;44116;50.884;4.768;2024-02-14T02:20:46;7.3;;;4.1;;
58306;SDS011;44116;50.884;4.768;2024-02-14T02:22:46;7.2;;;3.8;;
58306;SDS011;44116;50.884;4.768;2024-02-14T02:26:45;5.5;;;3.5;;
58306;SDS011;44116;50.884;4.768;2024-02-14T02:28:44;6.7;;;3.7;;
58306;SDS011;44116;50.884;4.768;2024-02-14T02:30:44;7.2;;;3.6;;
58306;SDS011;44116;50.884;4.768;2024-02-14T02:32:44;6.6;;;3.5;;
58306;SDS011;44116;50.884;4.768;2024-02-14T02:34:43;7.6;;;3.8;;
58306;SDS011;44116;50.884;4.768;2024-02-14T02:36:43;6.8;;;3.7;;
58306;SDS011;44116;50.884;4.768;2024-02-14T02:38:43;6.6;;;3.8;;
58306;SDS011;44116;50.884;4.768;2024-02-14T02:40:42;8.2;;;4.1;;
58306;SDS011;44116;50.884;4.768;2024-02-14T02:42:42;7.3;;;3.4;;
58306;SDS011;44116;50.884;4.768;2024-02-14T02:44:42;4.7;;;3.5;;
58306;SDS011;44116;50.884;4.768;2024-02-14T02:46:41;6.9;;;3.6;;
58306;SDS011;44116;50.884;4.768;2024-02-14T02:48:41;6.7;;;3.8;;
58306;SDS011;44116;50.884;4.768;2024-02-14T02:50:41;7.4;;;3.5;;
58306;SDS011;44116;50.884;4.768;2024-02-14T02:52:40;6.5;;;3.6;;
58306;SDS011;44116;50.884;4.768;2024-02-14T02:54:40;6.8;;;3.8;;
58306;SDS011;44116;50.884;4.768;2024-02-14T02:56:40;7.2;;;3.6;;
58306;SDS011;44116;50.884;4.768;2024-02-14T02:58:39;5.8;;;3.8;;
58306;SDS011;44116;50.884;4.768;2024-02-14T03:00:39;8.6;;;3.7;;
58306;SDS011;44116;50.884;4.768;2024-02-14T03:04:39;6.2;;;3.8;;
58306;SDS011;44116;50.884;4.768;2024-02-14T03:08:38;7.1;;;4.0;;
58306;SDS011;44116;50.884;4.768;2024-02-14T03:10:37;6.0;;;3.9;;
58306;SDS011;44116;50.884;4.768;2024-02-14T03:12:37;5.9;;;4.0;;
58306;SDS011;44116;50.884;4.768;2024-02-14T03:14:37;8.7;;;4.7;;
58306;SDS011;44116;50.884;4.768;2024-02-14T03:16:36;7.3;;;4.2;;
58306;SDS011;44116;50.884;4.768;2024-02-14T03:18:36;8.1;;;4.5;;
58306;SDS011;44116;50.884;4.768;2024-02-14T03:20:36;7.5;;;4.4;;
58306;SDS011;44116;50.884;4.768;2024-02-14T03:22:35;7.7;;;4.2;;
58306;SDS011;44116;50.884;4.768;2024-02-14T03:26:35;6.2;;;4.1;;
58306;SDS011;44116;50.884;4.768;2024-02-14T03:28:34;8.6;;;4.7;;
58306;SDS011;44116;50.884;4.768;2024-02-14T03:30:34;7.9;;;4.8;;
58306;SDS011;44116;50.884;4.768;2024-02-14T03:32:34;7.9;;;4.5;;
58306;SDS011;44116;50.884;4.768;2024-02-14T03:34:34;6.7;;;4.3;;
58306;SDS011;44116;50.884;4.768;2024-02-14T03:38:33;8.6;;;4.7;;
58306;SDS011;44116;50.884;4.768;2024-02-14T03:40:32;6.7;;;4.8;;
58306;SDS011;44116;50.884;4.768;2024-02-14T03:44:32;7.7;;;4.7;;
58306;SDS011;44116;50.884;4.768;2024-02-14T03:46:32;10.0;;;4.9;;
58306;SDS011;44116;50.884;4.768;2024-02-14T03:48:31;6.9;;;4.4;;
58306;SDS011;44116;50.884;4.768;2024-02-14T03:50:31;9.0;;;4.9;;
58306;SDS011;44116;50.884;4.768;2024-02-14T03:52:31;8.3;;;5.2;;
58306;SDS011;44116;50.884;4.768;2024-02-14T03:56:30;9.6;;;5.0;;
58306;SDS011;44116;50.884;4.768;2024-02-14T04:00:29;7.6;;;4.9;;
58306;SDS011;44116;50.884;4.768;2024-02-14T04:02:29;8.4;;;5.1;;
58306;SDS011;44116;50.884;4.768;2024-02-14T04:04:28;8.1;;;5.0;;
58306;SDS011;44116;50.884;4.768;2024-02-14T04:08:28;7.3;;;4.8;;
58306;SDS011;44116;50.884;4.768;2024-02-14T04:10:27;8.2;;;5.1;;
58306;SDS011;44116;50.884;4.768;2024-02-14T04:14:27;6.6;;;4.7;;
58306;SDS011;44116;50.884;4.768;2024-02-14T04:16:27;8.5;;;5.4;;
58306;SDS011;44116;50.884;4.768;2024-02-14T04:18:26;9.3;;;5.3;;
58306;SDS011;44116;50.884;4.768;2024-02-14T04:20:26;10.8;;;5.6;;
58306;SDS011;44116;50.884;4.768;2024-02-14T04:22:26;9.4;;;5.2;;
58306;SDS011;44116;50.884;4.768;2024-02-14T04:26:25;8.4;;;5.4;;
58306;SDS011;44116;50.884;4.768;2024-02-14T04:28:25;9.1;;;5.6;;
58306;SDS011;44116;50.884;4.768;2024-02-14T04:30:24;8.2;;;5.2;;
58306;SDS011;44116;50.884;4.768;2024-02-14T04:32:24;7.9;;;5.6;;
58306;SDS011;44116;50.884;4.768;2024-02-14T04:34:24;8.3;;;5.2;;
58306;SDS011;44116;50.884;4.768;2024-02-14T04:38:23;8.7;;;5.1;;
58306;SDS011;44116;50.884;4.768;2024-02-14T04:40:23;9.5;;;5.2;;
58306;SDS011;44116;50.884;4.768;2024-02-14T04:42:22;8.3;;;5.1;;
58306;SDS011;44116;50.884;4.768;2024-02-14T04:44:22;9.3;;;5.6;;
58306;SDS011;44116;50.884;4.768;2024-02-14T04:46:22;9.6;;;5.4;;
58306;SDS011;44116;50.884;4.768;2024-02-14T04:48:21;8.7;;;5.2;;
58306;SDS011;44116;50.884;4.768;2024-02-14T04:50:21;8.5;;;5.1;;
58306;SDS011;44116;50.884;4.768;2024-02-14T04:52:21;7.7;;;5.4;;
58306;SDS011;44116;50.884;4.768;2024-02-14T04:54:20;9.0;;;5.2;;
58306;SDS011;44116;50.884;4.768;2024-02-14T04:56:20;8.2;;;5.5;;
58306;SDS011;44116;50.884;4.768;2024-02-14T04:58:20;8.9;;;5.8;;
58306;SDS011;44116;50.884;4.768;2024-02-14T05:00:19;9.3;;;5.2;;
58306;SDS011;44116;50.884;4.768;2024-02-14T05:02:19;8.5;;;5.6;;
58306;SDS011;44116;50.884;4.768;2024-02-14T05:06:18;10.0;;;6.0;;
58306;SDS011;44116;50.884;4.768;2024-02-14T05:08:18;8.7;;;5.9;;
58306;SDS011;44116;50.884;4.768;2024-02-14T05:10:18;7.1;;;5.2;;
58306;SDS011;44116;50.884;4.768;2024-02-14T05:12:17;8.6;;;5.4;;
58306;SDS011;44116;50.884;4.768;2024-02-14T05:14:17;9.7;;;5.6;;
58306;SDS011;44116;50.884;4.768;2024-02-14T05:16:17;8.3;;;5.8;;
58306;SDS011;44116;50.884;4.768;2024-02-14T05:18:16;10.2;;;5.7;;
58306;SDS011;44116;50.884;4.768;2024-02-14T05:22:16;9.3;;;5.9;;
58306;SDS011;44116;50.884;4.768;2024-02-14T05:24:15;9.0;;;6.1;;
58306;SDS011;44116;50.884;4.768;2024-02-14T05:26:15;8.4;;;5.6;;
58306;SDS011;44116;50.884;4.768;2024-02-14T05:28:15;9.8;;;6.0;;
58306;SDS011;44116;50.884;4.768;2024-02-14T05:30:15;9.3;;;6.3;;
58306;SDS011;44116;50.884;4.768;2024-02-14T05:32:14;8.0;;;5.7;;
58306;SDS011;44116;50.884;4.768;2024-02-14T05:34:14;8.7;;;5.8;;
58306;SDS011;44116;50.884;4.768;2024-02-14T05:36:14;8.5;;;6.0;;
58306;SDS011;44116;50.884;4.768;2024-02-14T05:38:13;9.6;;;6.3;;
58306;SDS011;44116;50.884;4.768;2024-02-14T05:40:13;9.4;;;5.9;;
58306;SDS011;44116;50.884;4.768;2024-02-14T05:42:13;9.0;;;6.2;;
58306;SDS011;44116;50.884;4.768;2024-02-14T05:44:12;8.0;;;6.0;;
58306;SDS011;44116;50.884;4.768;2024-02-14T05:46:12;9.9;;;6.3;;
58306;SDS011;44116;50.884;4.768;2024-02-14T05:48:12;8.8;;;6.1;;
58306;SDS011;44116;50.884;4.768;2024-02-14T05:50:12;11.4;;;6.9;;
58306;SDS011;44116;50.884;4.768;2024-02-14T05:52:11;9.1;;;6.3;;
58306;SDS011;44116;50.884;4.768;2024-02-14T05:54:11;10.4;;;6.1;;
58306;SDS011;44116;50.884;4.768;2024-02-14T05:56:10;9.9;;;6.4;;
58306;SDS011;44116;50.884;4.768;2024-02-14T05:58:10;11.7;;;6.1;;
58306;SDS011;44116;50.884;4.768;2024-02-14T06:00:11;10.5;;;6.4;;
58306;SDS011;44116;50.884;4.768;2024-02-14T06:02:09;10.4;;;6.7;;
58306;SDS011;44116;50.884;4.768;2024-02-14T06:04:09;9.4;;;6.4;;
58306;SDS011;44116;50.884;4.768;2024-02-14T06:08:09;12.3;;;6.6;;
58306;SDS011;44116;50.884;4.768;2024-02-14T06:10:09;10.7;;;6.4;;
58306;SDS011;44116;50.884;4.768;2024-02-14T06:12:08;9.7;;;6.8;;
58306;SDS011;44116;50.884;4.768;2024-02-14T06:14:08;9.9;;;6.6;;
58306;SDS011;44116;50.884;4.768;2024-02-14T06:18:07;9.8;;;6.8;;
58306;SDS011;44116;50.884;4.768;2024-02-14T06:20:07;9.1;;;6.3;;
58306;SDS011;44116;50.884;4.768;2024-02-14T06:22:06;12.0;;;6.7;;
58306;SDS011;44116;50.884;4.768;2024-02-14T06:24:06;11.2;;;7.0;;
58306;SDS011;44116;50.884;4.768;2024-02-14T06:26:06;9.4;;;6.2;;
58306;SDS011;44116;50.884;4.768;2024-02-14T06:28:05;10.7;;;6.9;;
58306;SDS011;44116;50.884;4.768;2024-02-14T06:30:06;10.6;;;6.4;;
58306;SDS011;44116;50.884;4.768;2024-02-14T06:32:05;10.6;;;6.5;;
58306;SDS011;44116;50.884;4.768;2024-02-14T06:34:04;10.8;;;6.7;;
58306;SDS011;44116;50.884;4.768;2024-02-14T06:36:04;12.2;;;7.1;;
58306;SDS011;44116;50.884;4.768;2024-02-14T06:38:04;9.9;;;6.0;;
58306;SDS011;44116;50.884;4.768;2024-02-14T06:40:04;10.1;;;6.3;;
58306;SDS011;44116;50.884;4.768;2024-02-14T06:42:03;9.8;;;6.0;;
58306;SDS011;44116;50.884;4.768;2024-02-14T06:44:03;9.6;;;5.8;;
58306;SDS011;44116;50.884;4.768;2024-02-14T06:46:03;9.9;;;6.4;;
58306;SDS011;44116;50.884;4.768;2024-02-14T06:48:02;11.0;;;6.0;;
58306;SDS011;44116;50.884;4.768;2024-02-14T06:50:02;9.8;;;6.4;;
58306;SDS011;44116;50.884;4.768;2024-02-14T06:52:02;11.8;;;6.5;;
58306;SDS011;44116;50.884;4.768;2024-02-14T06:54:01;10.2;;;6.1;;
58306;SDS011;44116;50.884;4.768;2024-02-14T06:56:01;10.9;;;5.6;;
58306;SDS011;44116;50.884;4.768;2024-02-14T06:58:01;11.1;;;6.1;;
58306;SDS011;44116;50.884;4.768;2024-02-14T07:02:00;9.9;;;5.9;;
58306;SDS011;44116;50.884;4.768;2024-02-14T07:04:00;11.2;;;6.0;;
58306;SDS011;44116;50.884;4.768;2024-02-14T07:05:59;9.7;;;5.6;;
58306;SDS011;44116;50.884;4.768;2024-02-14T07:07:59;12.3;;;6.2;;
58306;SDS011;44116;50.884;4.768;2024-02-14T07:09:59;9.0;;;5.9;;
58306;SDS011;44116;50.884;4.768;2024-02-14T07:11:58;9.5;;;5.5;;
58306;SDS011;44116;50.884;4.768;2024-02-14T07:13:58;10.9;;;5.9;;
58306;SDS011;44116;50.884;4.768;2024-02-14T07:15:58;11.9;;;6.9;;
58306;SDS011;44116;50.884;4.768;2024-02-14T07:17:58;11.7;;;6.3;;
58306;SDS011;44116;50.884;4.768;2024-02-14T07:19:57;9.7;;;5.9;;
58306;SDS011;44116;50.884;4.768;2024-02-14T07:21:57;11.5;;;6.3;;
58306;SDS011;44116;50.884;4.768;2024-02-14T07:23:57;12.7;;;5.9;;
58306;SDS011;44116;50.884;4.768;2024-02-14T07:25:57;11.0;;;6.2;;
58306;SDS011;44116;50.884;4.768;2024-02-14T07:27:56;11.9;;;6.6;;
58306;SDS011;44116;50.884;4.768;2024-02-14T07:29:56;11.9;;;6.1;;
58306;SDS011;44116;50.884;4.768;2024-02-14T07:31:57;10.7;;;6.0;;
58306;SDS011;44116;50.884;4.768;2024-02-14T07:35:55;11.4;;;6.1;;
58306;SDS011;44116;50.884;4.768;2024-02-14T07:37:55;9.2;;;5.8;;
58306;SDS011;44116;50.884;4.768;2024-02-14T07:39:55;11.4;;;6.0;;
58306;SDS011;44116;50.884;4.768;2024-02-14T07:41:54;8.7;;;5.8;;
58306;SDS011;44116;50.884;4.768;2024-02-14T07:43:54;13.1;;;6.7;;
58306;SDS011;44116;50.884;4.768;2024-02-14T07:45:54;11.3;;;6.0;;
58306;SDS011;44116;50.884;4.768;2024-02-14T07:47:53;9.1;;;5.8;;
58306;SDS011;44116;50.884;4.768;2024-02-14T07:49:53;12.9;;;5.7;;
58306;SDS011;44116;50.884;4.768;2024-02-14T07:51:53;9.5;;;5.1;;
58306;SDS011;44116;50.884;4.768;2024-02-14T07:53:52;9.6;;;5.4;;
58306;SDS011;44116;50.884;4.768;2024-02-14T07:55:52;15.6;;;5.8;;
58306;SDS011;44116;50.884;4.768;2024-02-14T07:59:52;10.6;;;5.7;;
58306;SDS011;44116;50.884;4.768;2024-02-14T08:01:51;11.9;;;6.2;;
58306;SDS011;44116;50.884;4.768;2024-02-14T08:03:51;8.7;;;6.0;;
58306;SDS011;44116;50.884;4.768;2024-02-14T08:05:51;10.7;;;6.1;;
58306;SDS011;44116;50.884;4.768;2024-02-14T08:09:50;12.4;;;6.4;;
58306;SDS011;44116;50.884;4.768;2024-02-14T08:11:50;11.7;;;5.9;;
58306;SDS011;44116;50.884;4.768;2024-02-14T08:13:50;11.6;;;6.1;;
58306;SDS011;44116;50.884;4.768;2024-02-14T08:15:49;11.6;;;5.9;;
58306;SDS011;44116;50.884;4.768;2024-02-14T08:17:49;12.4;;;6.1;;
58306;SDS011;44116;50.884;4.768;2024-02-14T08:19:49;12.4;;;6.0;;
58306;SDS011;44116;50.884;4.768;2024-02-14T08:21:49;14.6;;;6.6;;
58306;SDS011;44116;50.884;4.768;2024-02-14T08:23:48;11.2;;;6.4;;
58306;SDS011;44116;50.884;4.768;2024-02-14T08:25:48;12.4;;;6.2;;
58306;SDS011;44116;50.884;4.768;2024-02-14T08:27:48;11.7;;;5.8;;
58306;SDS011;44116;50.884;4.768;2024-02-14T08:29:48;12.6;;;5.9;;
58306;SDS011;44116;50.884;4.768;2024-02-14T08:31:47;11.1;;;6.2;;
58306;SDS011;44116;50.884;4.768;2024-02-14T08:35:47;10.3;;;5.8;;
58306;SDS011;44116;50.884;4.768;2024-02-14T08:37:46;10.0;;;5.9;;
58306;SDS011;44116;50.884;4.768;2024-02-14T08:39:46;11.0;;;6.0;;
58306;SDS011;44116;50.884;4.768;2024-02-14T08:41:46;10.7;;;5.6;;
58306;SDS011;44116;50.884;4.768;2024-02-14T08:43:45;11.4;;;6.0;;
58306;SDS011;44116;50.884;4.768;2024-02-14T08:47:45;10.5;;;6.4;;
58306;SDS011;44116;50.884;4.768;2024-02-14T08:49:45;10.2;;;6.7;;
58306;SDS011;44116;50.884;4.768;2024-02-14T08:51:44;11.8;;;6.3;;
58306;SDS011;44116;50.884;4.768;2024-02-14T08:53:44;11.3;;;6.4;;
58306;SDS011;44116;50.884;4.768;2024-02-14T08:55:44;11.4;;;6.3;;
58306;SDS011;44116;50.884;4.768;2024-02-14T08:57:44;8.9;;;6.0;;
58306;SDS011;44116;50.884;4.768;2024-02-14T08:59:43;11.6;;;6.6;;
58306;SDS011;44116;50.884;4.768;2024-02-14T09:01:43;10.1;;;6.2;;
58306;SDS011;44116;50.884;4.768;2024-02-14T09:03:43;10.5;;;6.4;;
58306;SDS011;44116;50.884;4.768;2024-02-14T09:05:42;10.9;;;6.8;;
58306;SDS011;44116;50.884;4.768;2024-02-14T09:07:42;10.6;;;6.4;;
58306;SDS011;44116;50.884;4.768;2024-02-14T09:09:42;8.8;;;6.1;;
58306;SDS011;44116;50.884;4.768;2024-02-14T09:11:42;11.0;;;6.4;;
58306;SDS011;44116;50.884;4.768;2024-02-14T09:13:41;10.0;;;6.5;;
58306;SDS011;44116;50.884;4.768;2024-02-14T09:15:42;10.2;;;6.6;;
58306;SDS011;44116;50.884;4.768;2024-02-14T09:17:41;10.7;;;6.2;;
58306;SDS011;44116;50.884;4.768;2024-02-14T09:19:40;11.1;;;6.9;;
58306;SDS011;44116;50.884;4.768;2024-02-14T09:21:40;11.3;;;6.5;;
58306;SDS011;44116;50.884;4.768;2024-02-14T09:25:40;10.8;;;6.7;;
58306;SDS011;44116;50.884;4.768;2024-02-14T09:27:39;11.0;;;6.8;;
58306;SDS011;44116;50.884;4.768;2024-02-14T09:29:39;12.0;;;7.4;;
58306;SDS011;44116;50.884;4.768;2024-02-14T09:31:39;10.3;;;6.7;;
58306;SDS011;44116;50.884;4.768;2024-02-14T09:33:38;9.9;;;6.6;;
58306;SDS011;44116;50.884;4.768;2024-02-14T09:35:38;10.7;;;6.3;;
58306;SDS011;44116;50.884;4.768;2024-02-14T09:37:38;11.3;;;6.9;;
58306;SDS011;44116;50.884;4.768;2024-02-14T09:41:40;9.0;;;7.0;;
58306;SDS011;44116;50.884;4.768;2024-02-14T09:45:41;10.5;;;7.1;;
58306;SDS011;44116;50.884;4.768;2024-02-14T09:47:37;11.0;;;6.6;;
58306;SDS011;44116;50.884;4.768;2024-02-14T09:49:37;11.6;;;7.1;;
58306;SDS011;44116;50.884;4.768;2024-02-14T09:51:37;15.2;;;7.5;;
58306;SDS011;44116;50.884;4.768;2024-02-14T09:53:36;10.2;;;6.7;;
58306;SDS011;44116;50.884;4.768;2024-02-14T09:55:35;10.6;;;6.8;;
58306;SDS011;44116;50.884;4.768;2024-02-14T10:01:34;9.9;;;6.3;;
58306;SDS011;44116;50.884;4.768;2024-02-14T10:03:34;11.1;;;6.6;;
58306;SDS011;44116;50.884;4.768;2024-02-14T10:05:34;9.8;;;6.0;;
58306;SDS011;44116;50.884;4.768;2024-02-14T10:07:40;8.0;;;5.7;;
58306;SDS011;44116;50.884;4.768;2024-02-14T10:09:40;9.6;;;5.5;;
58306;SDS011;44116;50.884;4.768;2024-02-14T10:11:33;9.1;;;5.6;;
58306;SDS011;44116;50.884;4.768;2024-02-14T10:13:33;8.1;;;5.4;;
58306;SDS011;44116;50.884;4.768;2024-02-14T10:15:32;7.4;;;5.2;;
58306;SDS011;44116;50.884;4.768;2024-02-14T10:17:33;9.5;;;5.0;;
58306;SDS011;44116;50.884;4.768;2024-02-14T10:19:32;8.3;;;5.1;;
58306;SDS011;44116;50.884;4.768;2024-02-14T10:21:31;7.1;;;4.6;;
58306;SDS011;44116;50.884;4.768;2024-02-14T10:27:31;5.3;;;4.1;;
58306;SDS011;44116;50.884;4.768;2024-02-14T10:29:30;6.9;;;4.3;;
58306;SDS011;44116;50.884;4.768;2024-02-14T10:33:30;5.8;;;4.2;;
58306;SDS011;44116;50.884;4.768;2024-02-14T10:35:30;6.6;;;4.3;;
58306;SDS011;44116;50.884;4.768;2024-02-14T10:39:31;4.7;;;4.0;;
58306;SDS011;44116;50.884;4.768;2024-02-14T10:41:30;6.0;;;4.2;;
58306;SDS011;44116;50.884;4.768;2024-02-14T10:45:28;6.6;;;4.4;;
58306;SDS011;44116;50.884;4.768;2024-02-14T10:47:30;5.6;;;3.8;;
58306;SDS011;44116;50.884;4.768;2024-02-14T10:49:29;6.0;;;4.0;;
58306;SDS011;44116;50.884;4.768;2024-02-14T10:51:30;5.2;;;3.5;;
58306;SDS011;44116;50.884;4.768;2024-02-14T10:53:29;6.1;;;3.8;;
58306;SDS011;44116;50.884;4.768;2024-02-14T10:55:30;6.4;;;3.5;;
58306;SDS011;44116;50.884;4.768;2024-02-14T11:01:27;6.0;;;3.4;;
58306;SDS011;44116;50.884;4.768;2024-02-14T11:07:27;3.7;;;2.7;;
58306;SDS011;44116;50.884;4.768;2024-02-14T11:11:28;4.9;;;3.0;;
58306;SDS011;44116;50.884;4.768;2024-02-14T11:13:25;5.0;;;2.7;;
58306;SDS011;44116;50.884;4.768;2024-02-14T11:15:25;5.4;;;3.0;;
58306;SDS011;44116;50.884;4.768;2024-02-14T11:17:24;3.5;;;2.5;;
58306;SDS011;44116;50.884;4.768;2024-02-14T11:19:31;4.4;;;2.4;;
58306;SDS011;44116;50.884;4.768;2024-02-14T11:21:28;3.3;;;2.2;;
58306;SDS011;44116;50.884;4.768;2024-02-14T11:23:24;4.4;;;2.5;;
58306;SDS011;44116;50.884;4.768;2024-02-14T11:25:28;3.4;;;2.4;;
58306;SDS011;44116;50.884;4.768;2024-02-14T11:27:23;3.6;;;2.5;;
58306;SDS011;44116;50.884;4.768;2024-02-14T11:29:29;3.0;;;2.1;;
58306;SDS011;44116;50.884;4.768;2024-02-14T11:31:32;3.6;;;2.0;;
58306;SDS011;44116;50.884;4.768;2024-02-14T11:33:23;3.0;;;2.1;;
58306;SDS011;44116;50.884;4.768;2024-02-14T11:35:22;3.2;;;1.9;;
58306;SDS011;44116;50.884;4.768;2024-02-14T11:41:21;2.2;;;1.8;;
58306;SDS011;44116;50.884;4.768;2024-02-14T11:45:21;2.8;;;2.0;;
58306;SDS011;44116;50.884;4.768;2024-02-14T11:47:21;3.5;;;1.9;;
58306;SDS011;44116;50.884;4.768;2024-02-14T11:49:21;2.4;;;1.7;;
58306;SDS011;44116;50.884;4.768;2024-02-14T11:51:20;3.2;;;1.8;;
58306;SDS011;44116;50.884;4.768;2024-02-14T11:53:20;2.4;;;1.7;;
58306;SDS011;44116;50.884;4.768;2024-02-14T11:55:27;4.0;;;1.9;;
58306;SDS011;44116;50.884;4.768;2024-02-14T11:59:19;2.5;;;1.7;;
58306;SDS011;44116;50.884;4.768;2024-02-14T12:01:19;2.3;;;1.8;;
58306;SDS011;44116;50.884;4.768;2024-02-14T12:03:21;3.7;;;1.7;;
58306;SDS011;44116;50.884;4.768;2024-02-14T12:05:19;2.8;;;1.6;;
58306;SDS011;44116;50.884;4.768;2024-02-14T12:07:18;3.1;;;1.8;;
58306;SDS011;44116;50.884;4.768;2024-02-14T12:09:18;3.2;;;2.0;;
58306;SDS011;44116;50.884;4.768;2024-02-14T12:11:18;4.0;;;1.9;;
58306;SDS011;44116;50.884;4.768;2024-02-14T12:15:17;2.8;;;1.6;;
58306;SDS011;44116;50.884;4.768;2024-02-14T12:17:17;5.5;;;2.2;;
58306;SDS011;44116;50.884;4.768;2024-02-14T12:19:17;2.4;;;1.9;;
58306;SDS011;44116;50.884;4.768;2024-02-14T12:21:16;2.7;;;2.0;;
58306;SDS011;44116;50.884;4.768;2024-02-14T12:23:17;3.0;;;1.8;;
58306;SDS011;44116;50.884;4.768;2024-02-14T12:25:16;2.7;;;1.9;;
58306;SDS011;44116;50.884;4.768;2024-02-14T12:29:16;4.0;;;2.2;;
58306;SDS011;44116;50.884;4.768;2024-02-14T12:31:21;2.7;;;1.9;;
58306;SDS011;44116;50.884;4.768;2024-02-14T12:33:16;2.0;;;1.6;;
58306;SDS011;44116;50.884;4.768;2024-02-14T12:35:16;3.0;;;2.0;;
58306;SDS011;44116;50.884;4.768;2024-02-14T12:37:15;3.8;;;2.2;;
58306;SDS011;44116;50.884;4.768;2024-02-14T12:39:14;2.9;;;1.9;;
58306;SDS011;44116;50.884;4.768;2024-02-14T12:41:14;3.7;;;2.1;;
58306;SDS011;44116;50.884;4.768;2024-02-14T12:43:15;5.1;;;2.2;;
58306;SDS011;44116;50.884;4.768;2024-02-14T12:45:14;3.6;;;2.1;;
58306;SDS011;44116;50.884;4.768;2024-02-14T12:47:13;3.7;;;2.4;;
58306;SDS011;44116;50.884;4.768;2024-02-14T12:49:13;3.1;;;2.2;;
58306;SDS011;44116;50.884;4.768;2024-02-14T12:51:13;4.1;;;2.5;;
58306;SDS011;44116;50.884;4.768;2024-02-14T12:53:13;9.4;;;2.9;;
58306;SDS011;44116;50.884;4.768;2024-02-14T12:55:13;5.4;;;2.8;;
58306;SDS011;44116;50.884;4.768;2024-02-14T12:57:12;4.4;;;2.9;;
58306;SDS011;44116;50.884;4.768;2024-02-14T12:59:17;4.8;;;3.1;;
58306;SDS011;44116;50.884;4.768;2024-02-14T13:03:12;5.2;;;3.2;;
58306;SDS011;44116;50.884;4.768;2024-02-14T13:07:11;9.6;;;3.8;;
58306;SDS011;44116;50.884;4.768;2024-02-14T13:09:12;5.2;;;3.4;;
58306;SDS011;44116;50.884;4.768;2024-02-14T13:11:11;6.8;;;4.1;;
58306;SDS011;44116;50.884;4.768;2024-02-14T13:13:11;6.6;;;3.6;;
58306;SDS011;44116;50.884;4.768;2024-02-14T13:15:10;7.8;;;4.1;;
58306;SDS011;44116;50.884;4.768;2024-02-14T13:17:10;6.8;;;4.0;;
58306;SDS011;44116;50.884;4.768;2024-02-14T13:19:10;6.2;;;4.4;;
58306;SDS011;44116;50.884;4.768;2024-02-14T13:23:09;8.1;;;4.8;;
58306;SDS011;44116;50.884;4.768;2024-02-14T13:25:09;6.9;;;4.4;;
58306;SDS011;44116;50.884;4.768;2024-02-14T13:27:09;7.8;;;4.3;;
58306;SDS011;44116;50.884;4.768;2024-02-14T13:29:08;7.7;;;4.5;;
58306;SDS011;44116;50.884;4.768;2024-02-14T13:31:08;5.8;;;4.0;;
58306;SDS011;44116;50.884;4.768;2024-02-14T13:33:08;6.7;;;4.3;;
58306;SDS011;44116;50.884;4.768;2024-02-14T13:35:08;9.4;;;4.2;;
58306;SDS011;44116;50.884;4.768;2024-02-14T13:37:08;6.4;;;4.5;;
58306;SDS011;44116;50.884;4.768;2024-02-14T13:39:07;7.8;;;4.2;;
58306;SDS011;44116;50.884;4.768;2024-02-14T13:41:07;6.9;;;4.4;;
58306;SDS011;44116;50.884;4.768;2024-02-14T13:43:07;8.4;;;4.6;;
58306;SDS011;44116;50.884;4.768;2024-02-14T13:45:07;7.1;;;4.3;;
58306;SDS011;44116;50.884;4.768;2024-02-14T13:47:06;7.7;;;4.2;;
58306;SDS011;44116;50.884;4.768;2024-02-14T13:51:06;7.5;;;4.6;;
58306;SDS011;44116;50.884;4.768;2024-02-14T13:53:06;6.2;;;4.4;;
58306;SDS011;44116;50.884;4.768;2024-02-14T13:55:06;7.7;;;4.6;;
58306;SDS011;44116;50.884;4.768;2024-02-14T13:57:05;8.3;;;5.2;;
58306;SDS011;44116;50.884;4.768;2024-02-14T14:01:05;7.1;;;5.0;;
58306;SDS011;44116;50.884;4.768;2024-02-14T14:03:04;9.0;;;5.3;;
58306;SDS011;44116;50.884;4.768;2024-02-14T14:05:04;7.3;;;5.2;;
58306;SDS011;44116;50.884;4.768;2024-02-14T14:07:04;6.7;;;4.5;;
58306;SDS011;44116;50.884;4.768;2024-02-14T14:09:04;7.5;;;4.9;;
58306;SDS011;44116;50.884;4.768;2024-02-14T14:11:04;8.1;;;4.8;;
58306;SDS011;44116;50.884;4.768;2024-02-14T14:13:03;7.8;;;4.7;;